首页
METAR-TAF:

METAR-TAF

机场 :

Sheridan County Airport

Sheridan, 怀俄明州, 美国

纬度: 44-46-10N, 经度: 106-58-08W, 海拔: 1225米

当前天气观测

该预报发布于38分钟前的08:53 UTC
风速5节,风向
温度 -3°C
湿度 74%
气压 1022 hPa
能見度: 16.1公里
天空无云

METAR: KSHR 090853Z AUTO 36005KT 10SM CLR M03/M07 A3019 RMK AO2 SLP244 T10281067 58002

时间: 03:31 (09:31 UTC)

预报

该预报发布于4小时和6分钟前的05:25 UTC
预报有效从09日的 06点(UTC)到 10日的 06点(UTC)
风速节,风向
能見度: 10公里
散云层高于10000英尺

TAF: KSHR 090525Z 0906/1006 00000KT P6SM SCT100

超过4000个机场的气象观测和天气预报(METAR&TAF报告)。

可查询的气象台以黄色和红色小点在地图上表示。

将鼠标移到小点上方,可查看气象台名称。

然后点击查看天气观测和预报。

如需切换地图:点击带黑十字的绿色按钮放大地图;点击带横线的绿色按钮缩小地图;或者点击绿色箭头查看邻近地区的地图。


METAR-TAF: